createdAt,value
2019-03-13T00:01:08.578Z,21.60
2019-03-13T00:03:38.251Z,19.47
2019-03-13T00:06:08.132Z,21.13
2019-03-13T00:08:37.484Z,19.53
2019-03-13T00:11:07.004Z,19.27
2019-03-13T00:13:36.503Z,18.00
2019-03-13T00:16:06.319Z,16.27
2019-03-13T00:18:35.823Z,18.03
2019-03-13T00:21:05.211Z,16.07
2019-03-13T00:23:34.285Z,16.13
2019-03-13T00:26:03.411Z,16.63
2019-03-13T00:28:32.481Z,17.37
2019-03-13T00:31:02.159Z,17.80
2019-03-13T00:33:31.447Z,18.90
2019-03-13T00:36:00.971Z,17.87
2019-03-13T00:38:30.516Z,16.47
2019-03-13T00:40:59.973Z,16.93
2019-03-13T00:43:29.786Z,18.03
2019-03-13T00:45:59.180Z,15.87
2019-03-13T00:48:28.539Z,15.67
2019-03-13T00:50:57.654Z,15.83
2019-03-13T00:53:26.853Z,16.03
2019-03-13T00:55:56.611Z,15.00
2019-03-13T00:58:26.435Z,14.47
2019-03-13T01:01:04.097Z,15.87
2019-03-13T01:03:55.227Z,13.93
2019-03-13T01:06:29.995Z,14.33
2019-03-13T01:08:59.776Z,13.30
2019-03-13T01:11:28.917Z,13.27
2019-03-13T01:13:58.268Z,13.70
2019-03-13T01:16:28.104Z,13.17
2019-03-13T01:18:58.275Z,12.87
2019-03-13T01:21:27.357Z,12.20
2019-03-13T01:23:56.749Z,12.43
2019-03-13T01:26:26.120Z,11.77
2019-03-13T01:28:55.271Z,12.23
2019-03-13T01:31:58.657Z,11.87
2019-03-13T01:34:40.301Z,10.63
2019-03-13T01:37:10.216Z,10.43
2019-03-13T01:39:39.633Z,10.60
2019-03-13T01:42:09.450Z,10.20
2019-03-13T01:44:40.741Z,11.77
2019-03-13T01:47:10.367Z,11.33
2019-03-13T01:49:39.811Z,11.23
2019-03-13T01:52:08.938Z,11.13
2019-03-13T01:54:38.391Z,11.70
2019-03-13T01:57:07.765Z,11.83
2019-03-13T01:59:37.575Z,12.10
2019-03-13T02:02:07.022Z,12.40
2019-03-13T02:04:36.843Z,11.53
2019-03-13T02:07:06.973Z,11.20
2019-03-13T02:09:36.415Z,10.17
2019-03-13T02:12:06.343Z,10.40
2019-03-13T02:14:35.711Z,10.47
2019-03-13T02:17:05.534Z,9.47
2019-03-13T02:19:34.649Z,9.33
2019-03-13T02:22:03.755Z,8.93
2019-03-13T02:24:33.113Z,8.20
2019-03-13T02:27:02.509Z,6.90
2019-03-13T02:29:31.967Z,5.87
2019-03-13T02:32:01.727Z,6.23
2019-03-13T02:34:31.461Z,5.30
2019-03-13T02:37:00.615Z,4.93
2019-03-13T02:39:30.629Z,4.47
2019-03-13T02:42:00.647Z,4.53
2019-03-13T02:44:30.420Z,4.33
2019-03-13T02:46:59.902Z,4.33
2019-03-13T02:49:29.346Z,4.93
2019-03-13T02:51:59.094Z,3.80
2019-03-13T02:54:28.633Z,3.97
2019-03-13T02:56:58.116Z,3.87
2019-03-13T02:59:27.918Z,4.10
2019-03-13T03:02:14.792Z,3.70
2019-03-13T03:04:44.239Z,3.77
2019-03-13T03:07:14.353Z,4.40
2019-03-13T03:09:43.473Z,3.73
2019-03-13T03:12:12.923Z,4.03
2019-03-13T03:15:03.622Z,4.30
2019-03-13T03:17:33.135Z,4.97
2019-03-13T03:20:02.569Z,5.00
2019-03-13T03:22:32.054Z,5.40
2019-03-13T03:25:01.493Z,4.50
2019-03-13T03:27:31.269Z,4.87
2019-03-13T03:30:00.802Z,5.13
2019-03-13T03:32:30.869Z,4.73
2019-03-13T03:35:01.135Z,4.70
2019-03-13T03:37:30.381Z,4.40
2019-03-13T03:40:00.484Z,4.77
2019-03-13T03:42:29.583Z,3.90
2019-03-13T03:44:59.085Z,4.30
2019-03-13T03:47:28.165Z,3.80
2019-03-13T03:49:57.164Z,3.93
2019-03-13T03:52:27.255Z,3.87
2019-03-13T03:54:57.091Z,4.60
2019-03-13T03:57:26.595Z,4.27
2019-03-13T03:59:55.737Z,4.40
2019-03-13T04:02:24.820Z,4.27
2019-03-13T04:04:53.945Z,4.37
2019-03-13T04:07:22.985Z,4.03
2019-03-13T04:09:52.585Z,3.50
2019-03-13T04:12:22.421Z,3.93
2019-03-13T04:14:52.477Z,3.93
2019-03-13T04:17:22.254Z,4.13
2019-03-13T04:19:51.429Z,4.50
2019-03-13T04:22:21.168Z,3.73
2019-03-13T04:24:50.640Z,4.53
2019-03-13T04:27:20.701Z,4.10
2019-03-13T04:29:50.222Z,5.13
2019-03-13T04:32:19.639Z,4.83
2019-03-13T04:34:49.095Z,4.27
2019-03-13T04:37:18.127Z,4.60
2019-03-13T04:39:48.227Z,5.07
2019-03-13T04:42:17.746Z,4.93
2019-03-13T04:44:46.777Z,4.70
2019-03-13T04:47:16.203Z,4.47
2019-03-13T04:49:45.391Z,4.90
2019-03-13T04:52:14.761Z,5.13
2019-03-13T04:54:44.456Z,4.73
2019-03-13T04:57:13.589Z,5.53
2019-03-13T04:59:43.381Z,4.33
2019-03-13T05:02:13.337Z,5.40
2019-03-13T05:04:43.007Z,5.03
2019-03-13T05:07:12.069Z,5.90
2019-03-13T05:09:41.604Z,5.60
2019-03-13T05:12:11.490Z,5.80
2019-03-13T05:14:40.647Z,5.73
2019-03-13T05:17:10.273Z,5.40
2019-03-13T05:19:39.683Z,5.37
2019-03-13T05:22:09.371Z,5.30
2019-03-13T05:24:39.198Z,5.53
2019-03-13T05:27:08.580Z,5.80
2019-03-13T05:29:37.629Z,4.70
2019-03-13T05:32:07.871Z,4.90
2019-03-13T05:34:37.214Z,5.10
2019-03-13T05:37:06.654Z,5.60
2019-03-13T05:39:36.327Z,6.93
2019-03-13T05:42:06.171Z,6.40
2019-03-13T05:44:35.167Z,5.57
2019-03-13T05:47:04.599Z,5.87
2019-03-13T05:49:34.373Z,6.13
2019-03-13T05:52:03.575Z,7.13
2019-03-13T05:54:33.340Z,6.53
2019-03-13T05:57:03.238Z,7.40
2019-03-13T05:59:32.502Z,7.30
2019-03-13T06:02:02.117Z,9.40
2019-03-13T06:04:31.616Z,9.30
2019-03-13T06:07:01.345Z,8.90
2019-03-13T06:09:30.360Z,8.67
2019-03-13T06:11:59.439Z,9.47
2019-03-13T06:14:28.841Z,8.80
2019-03-13T06:16:58.641Z,8.37
2019-03-13T06:19:28.399Z,8.70
2019-03-13T06:21:57.526Z,8.03
2019-03-13T06:24:27.396Z,8.00
2019-03-13T06:26:56.780Z,9.37
2019-03-13T06:29:26.417Z,7.63
2019-03-13T06:31:55.542Z,7.07
2019-03-13T06:34:25.321Z,6.70
2019-03-13T06:36:54.853Z,6.40
2019-03-13T06:39:24.250Z,6.07
2019-03-13T06:41:53.693Z,6.80
2019-03-13T06:44:23.483Z,7.77
2019-03-13T06:46:53.296Z,6.90
2019-03-13T06:49:22.438Z,6.23
2019-03-13T06:51:52.296Z,6.17
2019-03-13T06:54:21.727Z,6.30
2019-03-13T06:56:51.465Z,5.67
2019-03-13T06:59:31.571Z,5.20
2019-03-13T07:02:37.412Z,5.90
2019-03-13T07:05:16.923Z,6.33
2019-03-13T07:07:54.522Z,6.50
2019-03-13T07:10:45.209Z,5.93
2019-03-13T07:13:23.846Z,4.87
2019-03-13T07:16:11.350Z,4.53
2019-03-13T07:18:51.085Z,5.17
2019-03-13T07:21:36.765Z,4.90
2019-03-13T07:24:36.815Z,5.63
2019-03-13T07:27:13.044Z,6.17
2019-03-13T07:30:06.952Z,6.40
2019-03-13T07:32:57.857Z,6.20
2019-03-13T07:35:37.596Z,5.73
2019-03-13T07:38:23.744Z,6.20
2019-03-13T07:41:08.990Z,7.10
2019-03-13T07:43:54.047Z,5.87
2019-03-13T07:46:54.243Z,6.13
2019-03-13T07:49:41.400Z,7.20
2019-03-13T07:52:44.568Z,6.60
2019-03-13T07:55:21.682Z,7.77
2019-03-13T07:58:14.292Z,7.30
2019-03-13T08:00:57.024Z,10.73
2019-03-13T08:03:40.116Z,6.77
2019-03-13T08:06:34.375Z,7.50
2019-03-13T08:09:38.152Z,6.77
2019-03-13T08:12:35.282Z,8.93
2019-03-13T08:15:22.718Z,7.47
2019-03-13T08:18:10.223Z,9.10
2019-03-13T08:21:02.892Z,8.87
2019-03-13T08:23:59.586Z,7.97
2019-03-13T08:26:35.557Z,8.00
2019-03-13T08:29:22.851Z,7.57
2019-03-13T08:32:14.257Z,8.60
2019-03-13T08:34:52.099Z,8.33
2019-03-13T08:37:46.100Z,7.97
2019-03-13T08:40:46.469Z,7.90
2019-03-13T08:43:25.818Z,7.83
2019-03-13T08:46:01.953Z,5.80
2019-03-13T08:48:49.151Z,6.23
2019-03-13T08:51:40.723Z,6.20
2019-03-13T08:54:25.034Z,6.40
2019-03-13T08:57:00.648Z,6.73
2019-03-13T08:59:45.992Z,6.50
2019-03-13T09:02:26.551Z,14.33
2019-03-13T09:05:06.457Z,8.67
2019-03-13T09:07:55.975Z,8.50
2019-03-13T09:10:53.170Z,9.47
2019-03-13T09:13:43.363Z,10.70
2019-03-13T09:16:21.453Z,8.13
2019-03-13T09:18:57.383Z,7.63
2019-03-13T09:21:35.892Z,7.10
2019-03-13T09:24:39.167Z,6.60
2019-03-13T09:27:26.790Z,8.20
2019-03-13T09:30:18.406Z,8.10
2019-03-13T09:33:00.931Z,7.50
2019-03-13T09:35:57.727Z,9.20
2019-03-13T09:38:38.221Z,7.43
2019-03-13T09:41:28.077Z,8.03
2019-03-13T09:44:25.852Z,7.67
2019-03-13T09:47:13.758Z,8.00
2019-03-13T09:49:55.758Z,8.10
2019-03-13T09:52:38.754Z,9.10
2019-03-13T09:55:25.470Z,9.10
2019-03-13T09:58:06.950Z,8.73
2019-03-13T10:00:54.983Z,8.53
2019-03-13T10:03:58.423Z,8.57
2019-03-13T10:06:43.212Z,9.67
2019-03-13T10:09:46.300Z,8.83
2019-03-13T10:12:40.265Z,11.87
2019-03-13T10:15:17.945Z,9.70
2019-03-13T10:18:05.466Z,9.00
2019-03-13T10:20:42.239Z,8.90
2019-03-13T10:23:39.593Z,8.73
2019-03-13T10:26:24.058Z,8.40
2019-03-13T10:28:57.847Z,7.47
2019-03-13T10:32:04.175Z,8.23
2019-03-13T10:34:49.748Z,8.63
2019-03-13T10:37:37.139Z,8.90
2019-03-13T10:40:24.399Z,9.03
2019-03-13T10:43:15.435Z,6.93
2019-03-13T10:46:06.094Z,7.20
2019-03-13T10:48:44.515Z,6.73
2019-03-13T10:51:29.978Z,6.37
2019-03-13T10:54:16.885Z,6.37
2019-03-13T10:57:20.370Z,6.47
2019-03-13T10:59:59.786Z,7.30
2019-03-13T11:02:50.675Z,7.80
2019-03-13T11:05:41.851Z,7.30
2019-03-13T11:08:17.864Z,6.10
2019-03-13T11:10:54.278Z,6.77
2019-03-13T11:13:38.553Z,7.50
2019-03-13T11:16:45.029Z,8.07
2019-03-13T11:19:36.048Z,7.50
2019-03-13T11:22:24.643Z,6.93
2019-03-13T11:25:09.041Z,7.73
2019-03-13T11:27:56.412Z,8.23
2019-03-13T11:30:39.430Z,8.80
2019-03-13T11:33:30.836Z,9.10
2019-03-13T11:36:09.547Z,7.63
2019-03-13T11:38:59.080Z,7.47
2019-03-13T11:41:38.668Z,7.93
2019-03-13T11:44:18.524Z,7.60
2019-03-13T11:46:58.454Z,9.17
2019-03-13T11:49:42.115Z,7.77
2019-03-13T11:52:29.410Z,7.90
2019-03-13T11:55:23.643Z,6.57
2019-03-13T11:58:05.766Z,6.70
2019-03-13T12:00:48.991Z,7.23
2019-03-13T12:03:28.523Z,6.07
2019-03-13T12:06:23.208Z,7.37
2019-03-13T12:09:16.878Z,8.23
2019-03-13T12:12:20.235Z,6.77
2019-03-13T12:15:17.693Z,7.13
2019-03-13T12:18:11.398Z,7.07
2019-03-13T12:20:59.450Z,6.13
2019-03-13T12:23:44.655Z,6.57
2019-03-13T12:26:27.592Z,6.57
2019-03-13T12:29:18.666Z,7.10
2019-03-13T12:32:16.113Z,6.40
2019-03-13T12:34:54.824Z,6.40
2019-03-13T12:37:40.462Z,6.00
2019-03-13T12:40:22.505Z,6.97
2019-03-13T12:43:20.252Z,6.27
2019-03-13T12:46:11.544Z,6.17
2019-03-13T12:49:12.046Z,6.13
2019-03-13T12:51:54.170Z,5.47
2019-03-13T12:54:45.264Z,5.53
2019-03-13T12:57:36.016Z,6.13
2019-03-13T13:00:18.368Z,6.20
2019-03-13T13:03:06.407Z,5.77
2019-03-13T13:05:57.427Z,5.80
2019-03-13T13:08:51.711Z,6.03
2019-03-13T13:11:38.477Z,6.50
2019-03-13T13:14:15.703Z,6.77
2019-03-13T13:17:02.686Z,7.40
2019-03-13T13:19:32.576Z,6.87
2019-03-13T13:22:02.586Z,7.37
2019-03-13T13:24:32.021Z,7.57
2019-03-13T13:27:02.220Z,7.17
2019-03-13T13:29:31.957Z,7.50
2019-03-13T13:32:01.411Z,7.17
2019-03-13T13:34:31.287Z,8.20
2019-03-13T13:37:01.404Z,8.37
2019-03-13T13:39:30.632Z,9.17
2019-03-13T13:41:59.822Z,9.30
2019-03-13T13:44:29.667Z,9.93
2019-03-13T13:46:58.765Z,9.70
2019-03-13T13:49:28.486Z,9.73
2019-03-13T13:51:58.138Z,8.57
2019-03-13T13:54:27.561Z,8.50
2019-03-13T13:56:56.675Z,9.73
2019-03-13T13:59:26.967Z,9.47
2019-03-13T14:01:56.511Z,9.23
2019-03-13T14:04:25.704Z,10.20
2019-03-13T14:06:54.889Z,10.17
2019-03-13T14:09:25.105Z,9.57
2019-03-13T14:11:55.029Z,9.10
2019-03-13T14:14:24.001Z,7.37
2019-03-13T14:16:53.861Z,8.43
2019-03-13T14:19:23.072Z,7.30
2019-03-13T14:21:52.172Z,5.90
2019-03-13T14:24:21.711Z,5.10
2019-03-13T14:26:51.347Z,4.80
2019-03-13T14:29:21.791Z,4.97
2019-03-13T14:31:51.764Z,4.73
2019-03-13T14:34:21.797Z,3.93
2019-03-13T14:36:51.652Z,4.80
2019-03-13T14:39:21.711Z,4.20
2019-03-13T14:41:50.910Z,4.70
2019-03-13T14:44:20.372Z,5.10
2019-03-13T14:46:50.407Z,5.00
2019-03-13T14:49:19.798Z,3.90
2019-03-13T14:51:49.680Z,3.07
2019-03-13T14:54:19.122Z,3.10
2019-03-13T14:56:49.128Z,3.00
2019-03-13T14:59:18.202Z,3.30
2019-03-13T15:01:47.330Z,3.70
2019-03-13T15:04:16.633Z,4.37
2019-03-13T15:06:45.791Z,4.20
2019-03-13T15:09:14.961Z,6.40
2019-03-13T15:11:45.337Z,7.27
2019-03-13T15:14:14.905Z,9.80
2019-03-13T15:16:44.293Z,9.97
2019-03-13T15:19:13.400Z,10.40
2019-03-13T15:21:42.861Z,10.57
2019-03-13T15:24:12.323Z,10.63
2019-03-13T15:26:42.217Z,10.13
2019-03-13T15:29:11.308Z,9.73
2019-03-13T15:31:40.922Z,9.33
2019-03-13T15:34:10.882Z,9.90
2019-03-13T15:36:40.711Z,10.17
2019-03-13T15:39:10.198Z,10.60
2019-03-13T15:41:40.017Z,12.17
2019-03-13T15:44:09.669Z,10.57
2019-03-13T15:46:39.406Z,12.50
2019-03-13T15:49:08.848Z,11.27
2019-03-13T15:51:38.904Z,9.67
2019-03-13T15:54:08.267Z,12.07
2019-03-13T15:56:38.177Z,12.47
2019-03-13T15:59:07.746Z,13.57
2019-03-13T16:01:37.150Z,12.53
2019-03-13T16:04:07.085Z,12.23
2019-03-13T16:06:36.509Z,13.23
2019-03-13T16:09:08.231Z,13.43
2019-03-13T16:11:37.304Z,13.20
2019-03-13T16:14:06.758Z,12.87
2019-03-13T16:16:36.569Z,16.70
2019-03-13T16:19:06.042Z,17.07
2019-03-13T16:21:35.141Z,25.00
2019-03-13T16:24:04.783Z,19.73
2019-03-13T16:26:34.689Z,26.93
2019-03-13T16:29:03.839Z,25.83
2019-03-13T16:31:33.054Z,17.93
2019-03-13T16:34:02.576Z,19.27
2019-03-13T16:36:32.282Z,14.73
2019-03-13T16:39:01.443Z,18.23
2019-03-13T16:41:30.928Z,13.17
2019-03-13T16:44:00.795Z,13.83
2019-03-13T16:46:30.376Z,14.67
2019-03-13T16:48:59.591Z,14.77
2019-03-13T16:51:28.770Z,15.10
2019-03-13T16:53:58.551Z,14.20
2019-03-13T16:56:28.085Z,16.87
2019-03-13T16:58:57.565Z,18.03
2019-03-13T17:01:27.416Z,16.23
2019-03-13T17:03:57.478Z,16.53
2019-03-13T17:06:26.703Z,17.23
2019-03-13T17:08:56.692Z,25.67
2019-03-13T17:11:26.231Z,20.43
2019-03-13T17:13:56.303Z,21.80
2019-03-13T17:16:25.494Z,21.93
2019-03-13T17:18:54.833Z,20.33
2019-03-13T17:21:24.030Z,20.37
2019-03-13T17:23:53.939Z,20.30
2019-03-13T17:26:23.779Z,20.87
2019-03-13T17:28:53.915Z,19.17
2019-03-13T17:31:23.102Z,19.90
2019-03-13T17:33:52.693Z,20.90
2019-03-13T17:36:22.419Z,19.30
2019-03-13T17:38:52.031Z,19.27
2019-03-13T17:41:21.942Z,19.07
2019-03-13T17:43:51.650Z,20.97
2019-03-13T17:46:21.189Z,19.77
2019-03-13T17:48:51.625Z,21.13
2019-03-13T17:51:21.185Z,19.93
2019-03-13T17:53:51.075Z,20.83
2019-03-13T17:56:20.911Z,24.33
2019-03-13T17:58:50.666Z,26.33
2019-03-13T18:01:20.023Z,25.77
2019-03-13T18:03:50.797Z,24.70
2019-03-13T18:06:20.385Z,25.10
2019-03-13T18:08:49.563Z,25.37
2019-03-13T18:11:18.766Z,25.70
2019-03-13T18:13:48.092Z,24.73
2019-03-13T18:16:17.536Z,25.43
2019-03-13T18:18:47.057Z,25.77
2019-03-13T18:21:16.646Z,25.80
2019-03-13T18:23:45.844Z,27.60
2019-03-13T18:26:15.858Z,25.97
2019-03-13T18:28:46.199Z,21.87
2019-03-13T18:31:15.415Z,20.80
2019-03-13T18:33:45.099Z,21.50
2019-03-13T18:36:14.520Z,20.57
2019-03-13T18:38:44.131Z,19.60
2019-03-13T18:41:13.963Z,20.47
2019-03-13T18:43:43.460Z,21.33
2019-03-13T18:46:12.556Z,22.90
2019-03-13T18:48:42.499Z,23.03
2019-03-13T18:51:13.501Z,21.50
2019-03-13T18:53:43.200Z,20.97
2019-03-13T18:56:12.612Z,20.40
2019-03-13T18:58:42.449Z,21.77
2019-03-13T19:01:12.232Z,22.43
2019-03-13T19:03:41.681Z,21.83
2019-03-13T19:06:10.975Z,21.40
2019-03-13T19:08:40.933Z,21.67
2019-03-13T19:11:10.957Z,22.80
2019-03-13T19:13:40.409Z,23.93
2019-03-13T19:16:10.381Z,24.90
2019-03-13T19:18:40.027Z,25.53
2019-03-13T19:21:10.158Z,29.37
2019-03-13T19:23:39.726Z,31.13
2019-03-13T19:26:09.297Z,28.97
2019-03-13T19:28:39.244Z,29.67
2019-03-13T19:31:08.358Z,30.17
2019-03-13T19:33:38.252Z,30.17
2019-03-13T19:36:07.518Z,33.43
2019-03-13T19:38:36.728Z,35.53
2019-03-13T19:41:08.485Z,33.57
2019-03-13T19:43:37.227Z,30.43
2019-03-13T19:46:06.668Z,28.57
2019-03-13T19:48:36.182Z,27.73
2019-03-13T19:51:05.835Z,27.67
2019-03-13T19:53:35.732Z,27.33
2019-03-13T19:56:05.863Z,22.37
2019-03-13T19:58:35.971Z,22.53
2019-03-13T20:01:07.026Z,19.60
2019-03-13T20:03:36.246Z,19.47
2019-03-13T20:06:05.775Z,21.10
2019-03-13T20:08:35.930Z,20.03
2019-03-13T20:11:06.111Z,18.30
2019-03-13T20:13:35.366Z,19.73
2019-03-13T20:16:05.342Z,17.70
2019-03-13T20:18:34.808Z,16.97
2019-03-13T20:21:04.236Z,17.00
2019-03-13T20:23:34.228Z,18.90
2019-03-13T20:26:03.728Z,20.90
2019-03-13T20:28:33.001Z,20.63
2019-03-13T20:31:02.448Z,18.30
2019-03-13T20:33:31.586Z,18.70
2019-03-13T20:36:00.768Z,17.43
2019-03-13T20:38:30.846Z,16.47
2019-03-13T20:41:00.035Z,16.50
2019-03-13T20:43:29.166Z,15.97
2019-03-13T20:45:58.341Z,17.10
2019-03-13T20:48:28.446Z,18.23
2019-03-13T20:50:58.163Z,18.23
2019-03-13T20:53:27.659Z,15.13
2019-03-13T20:55:58.840Z,15.53
2019-03-13T20:58:28.770Z,13.37
2019-03-13T21:00:58.853Z,12.87
2019-03-13T21:03:28.437Z,13.63
2019-03-13T21:06:00.669Z,13.60
2019-03-13T21:08:29.453Z,15.07
2019-03-13T21:10:59.022Z,15.87
2019-03-13T21:13:28.121Z,15.77
2019-03-13T21:15:57.362Z,16.50
2019-03-13T21:18:27.139Z,16.67
2019-03-13T21:20:56.630Z,18.03
2019-03-13T21:23:26.402Z,18.00
2019-03-13T21:25:56.032Z,17.67
2019-03-13T21:28:25.548Z,17.80
2019-03-13T21:30:55.533Z,18.90
2019-03-13T21:33:24.735Z,18.93
2019-03-13T21:35:54.130Z,19.00
2019-03-13T21:38:24.074Z,18.10
2019-03-13T21:40:53.899Z,20.00
2019-03-13T21:43:23.343Z,20.83
2019-03-13T21:45:52.493Z,19.93
2019-03-13T21:48:22.689Z,19.47
2019-03-13T21:50:52.440Z,20.23
2019-03-13T21:53:22.143Z,20.07
2019-03-13T21:55:51.694Z,19.47
2019-03-13T21:58:21.147Z,17.27
2019-03-13T22:00:50.411Z,18.23
2019-03-13T22:03:28.822Z,18.50
2019-03-13T22:05:50.596Z,18.23
2019-03-13T22:08:19.798Z,18.53
2019-03-13T22:10:49.647Z,17.97
2019-03-13T22:13:19.486Z,17.67
2019-03-13T22:15:48.766Z,17.07
2019-03-13T22:18:18.338Z,17.60
2019-03-13T22:20:47.490Z,18.97
2019-03-13T22:23:17.233Z,19.67
2019-03-13T22:25:46.312Z,19.63
2019-03-13T22:28:16.484Z,19.93
2019-03-13T22:30:46.398Z,20.53
2019-03-13T22:33:16.302Z,22.47
2019-03-13T22:35:45.971Z,21.77
2019-03-13T22:38:15.242Z,22.03
2019-03-13T22:40:44.278Z,22.70
2019-03-13T22:43:13.420Z,23.37
2019-03-13T22:45:43.419Z,21.83
2019-03-13T22:48:13.208Z,22.37
2019-03-13T22:50:42.610Z,21.80
2019-03-13T22:53:11.709Z,21.20
2019-03-13T22:55:41.190Z,20.17
2019-03-13T22:58:10.583Z,22.47
2019-03-13T23:00:56.547Z,20.67
2019-03-13T23:03:30.615Z,22.70
2019-03-13T23:06:00.087Z,19.10
2019-03-13T23:08:31.133Z,19.60
2019-03-13T23:11:01.249Z,21.50
2019-03-13T23:13:31.019Z,20.57
2019-03-13T23:16:00.597Z,19.43
2019-03-13T23:18:30.364Z,18.87
2019-03-13T23:21:00.146Z,18.40
2019-03-13T23:23:29.961Z,19.07
2019-03-13T23:25:59.838Z,18.50
2019-03-13T23:28:28.907Z,17.97
2019-03-13T23:30:58.740Z,17.70
2019-03-13T23:33:28.108Z,17.73
2019-03-13T23:35:57.575Z,16.73
2019-03-13T23:38:26.651Z,16.67
2019-03-13T23:40:55.705Z,16.93
2019-03-13T23:43:25.489Z,16.17
2019-03-13T23:45:54.848Z,16.87
2019-03-13T23:48:23.959Z,15.80
2019-03-13T23:50:53.699Z,14.97
2019-03-13T23:53:22.792Z,16.37
2019-03-13T23:55:52.304Z,15.30
2019-03-13T23:58:21.694Z,15.37
